Historyczne dane pomiarowe

Dodano dane terminowe – wersja testowa.

Dane z okresu 1951-2019

Wersja bazy: 1.34 [2019-03-16, lista zmian], aktualizacja planowana na 2019-04-15

Dane meteo z obszaru Polski uzyskane na podstawie danych udostępnionych przez Instytut Meteorologii i Gospodarki Wodnej – Państwowy Instytut Badawczy.

 

Wybierz Datę:    

       

TemperaturaWilgotnośćWiatrCiśnienieOpadyŚniegCzas trwania zjawisk
 Stacja t tx tn tng RH VA  wxwx mslp ppp RRR   cm mm wxwxwxwxwxwxwx
1994-08-14 13.4 18.3 10.2 9.6 71.3- 5.0 2.0---- 0.0------------
1994-08-13 16.0 20.8 12.2 11.6 77.5- 6.0 2.0---- 2.2------------
1994-08-12 14.3 20.0 11.2 10.6 94.3- 7.0 1.0---- 11.8------------
1994-08-11 17.1 23.9 11.7 11.6 89.5- 6.7 2.7---- 3.6------------
1994-08-10 17.9 26.9 9.7 9.1 70.3- 5.0 1.0---- 0.0------------
1994-08-09 17.2 21.8 12.7 12.6 91.5- 6.3 2.0---- 1.7------------
1994-08-08 19.2 28.4 11.7 11.4 76.5- 6.0 2.0---- 0.0------------
1994-08-07 19.0 28.0 13.2 13.1 82.8- 5.3 0.7---- 8.7------------
1994-08-06 18.9 29.4 8.8 8.6 72.3- 3.3 1.3---- 0.0------------
1994-08-05 20.0 28.9 10.7 10.1 65.8- 1.0 1.0---- 0.0------------
1994-08-04 19.9 26.9 11.7 10.6 73.5- 4.3 0.7---- 0.0------------
1994-08-03 19.6 27.9 11.7 11.1 73.5- 5.0 1.0---- 1.2------------
1994-08-02 20.0 30.0 10.7 10.1 71.3- 4.3 0.0---- 0.0------------
1994-08-01 19.7 31.4 10.7 10.1 73.8- 4.7 1.0---- 0.1------------
1994-07-31 22.0 31.1 8.8 8.6 57.8- 0.3 0.3---- 0.0------------
1994-07-30 21.2 31.9 8.8 8.1 56.3- 0.3 0.3---- 0.0------------
1994-07-29 20.3 32.9 6.8 6.0 59.0- 0.0 0.0---- 0.0------------
1994-07-28 20.8 30.9 8.8 6.5 61.8- 1.0 0.0---- 0.0------------
1994-07-27 20.2 30.9 8.8 8.6 64.3- 1.0 0.3---- 0.0------------
1994-07-26 20.1 30.0 9.7 9.1 68.8- 1.0 0.0---- 0.0------------
1994-07-25 18.0 28.9 7.8 7.5 77.0- 3.3 0.7---- 3.5------------
1994-07-24 19.3 27.9 7.8 7.5 59.3- 1.0 0.0---- 0.0------------
1994-07-23 17.4 26.1 4.9 4.5 63.0- 0.7 1.0---- 0.0------------
1994-07-22 16.7 25.9 4.9 4.0 66.0- 0.3 0.0---- 0.0------------
1994-07-21 15.4 23.8 3.9 3.8 69.8- 0.0 0.0---- 0.0------------
1994-07-20 17.5 21.8 9.7 9.1 62.0- 2.7 0.3---- 0.0------------
1994-07-19 18.3 23.0 12.7 12.1 76.0- 3.0 1.3---- 0.0------------
1994-07-18 19.5 25.9 14.7 14.6 78.8- 5.3 1.7---- 0.0------------
1994-07-17 17.5 26.9 10.7 10.1 86.5- 7.0 1.0---- 8.5------------
1994-07-16 17.5 27.9 9.3 9.1 85.8- 2.7 1.0---- 0.0------------
1994-07-15 16.6 25.9 9.7 9.5 84.8- 4.7 0.3---- 0.0------------
1994-07-14 16.5 25.9 8.8 8.1 83.8- 4.7 0.0---- 53.7------------
1994-07-13 17.0 24.9 6.8 6.5 74.3- 1.0 0.0---- 0.0------------
1994-07-12 18.6 22.8 13.7 13.1 73.0- 2.0 1.3---- 0.0------------
1994-07-11 15.2 21.3 9.3 8.6 83.3- 5.7 1.3---- 0.0------------
1994-07-10 12.4 16.9 9.7 9.6 90.5- 6.0 1.0---- 1.8------------
1994-07-09 11.8 18.8 5.8 4.0 86.8- 6.0 2.3---- 24.5------------
1994-07-08 15.4 19.8 12.2 12.1 72.5- 5.3 2.0---- 0.0------------
1994-07-07 14.9 24.9 5.8 5.0 83.8- 6.3 0.0---- 5.6------------
1994-07-06 18.7 23.8 10.7 10.1 58.8- 1.3 1.3---- 0.0------------
1994-07-05 15.4 24.9 7.8 7.5 80.5- 5.0 0.0---- 0.1------------
1994-07-04 17.9 27.9 4.9 4.0 64.3- 1.0 1.3---- 0.0------------
1994-07-03 17.1 26.9 3.9 2.5 64.3- 1.0 1.0---- 0.0------------
1994-07-02 15.8 24.1 4.9 3.5 70.0- 1.0 1.0---- 0.0------------
1994-07-01 18.8 22.8 14.7 14.1 69.5- 3.3 1.0---- 0.0------------
1994-06-30 20.3 27.2 13.2 12.6 87.8- 5.0 1.3---- 4.4------------
1994-06-29 21.6 31.9 10.7 10.6 74.8- 0.7 0.3---- 0.0------------
1994-06-28 22.0 29.9 12.7 12.1 77.5- 4.0 1.0---- 0.0------------
1994-06-27 20.3 30.9 10.2 9.1 72.3- 3.7 0.7---- 0.0------------
1994-06-26 17.2 26.9 2.9 1.5 63.0- 1.0 1.0---- 0.0------------
1994-06-25 12.7 23.9 0.0 -1.6 58.8- 0.7 0.7---- 0.0------------
1994-06-24 13.0 18.8 3.4 0.9 56.0- 1.0 2.0---- 0.0------------
1994-06-23 16.4 22.8 12.7 11.1 63.8- 4.7 3.0---- 0.0------------
1994-06-22 15.8 25.9 4.9 3.5 69.0- 3.7 0.7---- 0.0------------
1994-06-21 14.5 19.8 4.9 3.5 62.8- 2.0 1.7---- 0.0------------
1994-06-20 15.9 21.8 5.8 6.0 67.3- 3.7 3.3---- 0.0------------
1994-06-19 16.3 23.3 8.8 8.6 70.8- 5.0 2.0---- 0.0------------
1994-06-18 11.1 18.8 3.4 0.4 72.3- 4.3 1.7---- 12.4------------
1994-06-17 9.5 12.9 6.8 5.0 80.3- 8.0 3.0---- 0.4------------
1994-06-16 11.3 15.4 2.9 1.5 73.5- 5.7 2.7---- 1.6------------
310.7 ms

 

Źródłem pochodzenia danych jest Instytut Meteorologii i Gospodarki Wodnej – Państwowy Instytut Badawczy. Dane Instytutu Meteorologii i Gospodarki Wodnej – Państwowego Instytutu Badawczego zostały przetworzone.

Dane źródłowe można odnaleźć na stronie https://dane.imgw.pl